Bookmark and Share
Track history (hours):
 

C. Angelo

More information available from US FCC via Universal Licensing System and Coast Guard Vessel Documentation Center.

Last reported at 2014-Apr-24 19:33 UTC. Time now 2014-Apr-24 22:03 UTC.
Position N 36°59' W 076°27'.

Length 30 m; draft 4.1 m.

Type: Tug. MMSI: 366988420.

NotesDate/timePositionNaut miles runAvg speedWind from/ knotsBaromVisibWave heightAir tempDewpointWater temp
2014-Apr-24 19:33N 36°59' W 076°27'120 7.0
2014-Apr-24 02:25N 38°60' W 076°23'10 8.9
2014-Apr-24 01:21N 39°09' W 076°19'103 4.5
2014-Apr-23 02:32N 39°29' W 074°09'9 8.8
2014-Apr-23 01:33N 39°37' W 074°04'8 8.5
2014-Apr-23 00:33N 39°45' W 073°59'8 8.3
2014-Apr-22 23:33N 39°53' W 073°57'8 8.0
2014-Apr-22 22:32N 40°01' W 073°56'8 7.9
2014-Apr-22 21:33N 40°09' W 073°55'8 7.6
2014-Apr-22 20:33N 40°16' W 073°54'10 7.5
2014-Apr-22 19:14N 40°26' W 073°54'4 5.7
2014-Apr-22 18:33N 40°30' W 073°56'6 5.8
2014-Apr-22 17:33N 40°34' W 074°02'7 7.1
2014-Apr-22 16:33N 40°41' W 074°02'6 6.0
2014-Apr-22 15:33N 40°45' W 073°57'9 6.6
2014-Apr-22 14:11N 40°49' W 073°47'5 7.8
2014-Apr-22 13:33N 40°53' W 073°43'8 7.9
2014-Apr-22 12:33N 40°57' W 073°33'8 7.7
2014-Apr-22 11:33N 41°00' W 073°24'7 6.8
2014-Apr-22 10:33N 41°01' W 073°15'9 8.7
2014-Apr-22 09:33N 41°02' W 073°04'9 8.9
2014-Apr-22 08:34N 41°04' W 072°52'9 9.3
2014-Apr-22 07:33N 41°07' W 072°40'1010.1
2014-Apr-22 06:33N 41°09' W 072°27'1110.6
2014-Apr-22 05:33N 41°12' W 072°14'10 9.6
2014-Apr-22 04:34N 41°14' W 072°02'9 8.7
2014-Apr-22 03:33N 41°16' W 071°50'8 8.0
2014-Apr-22 02:33N 41°17' W 071°40'8 7.9
2014-Apr-22 01:33N 41°18' W 071°29'7 7.5
2014-Apr-22 00:33N 41°25' W 071°25'6 6.4
2014-Apr-21 23:33N 41°31' W 071°24'2 2.4
2014-Apr-21 22:33N 41°34' W 071°24'2 1.6
2014-Apr-21 21:33N 41°35' W 071°24'1 1.5
2014-Apr-21 20:34N 41°34' W 071°24'0 0.2
2014-Apr-21 19:33N 41°34' W 071°24'1 1.4
2014-Apr-21 18:33N 41°32' W 071°24'3 2.6
2014-Apr-21 17:33N 41°30' W 071°25'8 7.8
2014-Apr-21 16:33N 41°22' W 071°27'7 6.9
2014-Apr-21 15:33N 41°18' W 071°34'9 8.7
2014-Apr-21 14:33N 41°16' W 071°45'9 9.5
2014-Apr-21 13:33N 41°14' W 071°57'1010.2
2014-Apr-21 12:33N 41°13' W 072°11'1110.9
2014-Apr-21 11:34N 41°08' W 072°24'1110.5
2014-Apr-21 10:34N 41°02' W 072°35'3 3.2
2014-Apr-21 09:33N 40°60' W 072°39'0 0.0
2014-Apr-21 08:33N 40°60' W 072°39'0 0.0
2014-Apr-21 07:33N 40°60' W 072°39'0 0.0
2014-Apr-21 06:33N 40°60' W 072°39'0 0.0
2014-Apr-21 05:33N 40°60' W 072°39'0 0.0
2014-Apr-21 04:33N 40°60' W 072°39'0 0.0
2014-Apr-21 03:33N 40°60' W 072°39'0 0.0
2014-Apr-21 02:33N 40°60' W 072°39'0 0.0
2014-Apr-21 01:33N 40°60' W 072°39'0 0.0
2014-Apr-21 00:33N 40°60' W 072°39'4 3.6
2014-Apr-20 23:33N 41°03' W 072°42'4 3.5
2014-Apr-20 22:33N 41°00' W 072°39'1 0.8
2014-Apr-20 21:33N 41°01' W 072°39'9 9.3
2014-Apr-20 20:33N 41°08' W 072°47'9 8.7
2014-Apr-20 19:33N 41°14' W 072°55'3 1.3
2014-Apr-20 17:06N 41°18' W 072°54'0 0.0
2014-Apr-20 16:33N 41°18' W 072°54'0 0.0
2014-Apr-20 15:33N 41°18' W 072°54'0 0.0
2014-Apr-20 14:33N 41°18' W 072°54'0 0.0
2014-Apr-20 13:33N 41°18' W 072°54'0 0.0
2014-Apr-20 12:31N 41°18' W 072°54'0 0.1
2014-Apr-20 11:33N 41°18' W 072°54'3 3.1
2014-Apr-20 10:33N 41°15' W 072°55'3 2.6
2014-Apr-20 09:33N 41°12' W 072°53'4 4.2
2014-Apr-20 08:33N 41°11' W 072°48'7 7.2
2014-Apr-20 07:33N 41°11' W 072°38'8 7.9
2014-Apr-20 06:33N 41°11' W 072°27'9 8.8
2014-Apr-20 05:33N 41°13' W 072°16'9 9.5
2014-Apr-20 04:33N 41°14' W 072°04'10 9.7
2014-Apr-20 03:33N 41°15' W 071°51'9 8.9
2014-Apr-20 02:34N 41°17' W 071°39'8 8.3
2014-Apr-20 01:33N 41°18' W 071°28'8 8.5
2014-Apr-20 00:33N 41°21' W 071°18'9 8.7
2014-Apr-19 23:33N 41°24' W 071°07'9 8.6
2014-Apr-19 22:34N 41°29' W 070°57'7 0.7
2014-Apr-19 12:28N 41°35' W 070°53'4 4.5
2014-Apr-19 11:33N 41°31' W 070°51'8 8.1
2014-Apr-19 10:33N 41°27' W 070°60'9 9.2
2014-Apr-19 09:33N 41°22' W 071°11'10 9.6
2014-Apr-19 08:33N 41°19' W 071°23'10 9.8
2014-Apr-19 07:33N 41°18' W 071°35'10 9.7
2014-Apr-19 06:34N 41°16' W 071°48'9 9.1
2014-Apr-19 05:33N 41°14' W 072°00'8 7.8
2014-Apr-19 04:34N 41°14' W 072°11'8 7.7
2014-Apr-19 03:34N 41°12' W 072°20'7 7.5
2014-Apr-19 02:34N 41°10' W 072°30'8 8.5
2014-Apr-19 01:33N 41°11' W 072°41'8 8.3
2014-Apr-19 00:33N 41°12' W 072°52'6 5.9
2014-Apr-18 23:32N 41°18' W 072°54'0 0.0
2014-Apr-18 18:24N 41°18' W 072°54'0 0.0
2014-Apr-18 15:16N 41°18' W 072°54'0 0.0
2014-Apr-18 10:23N 41°18' W 072°54'0 0.0
2014-Apr-18 08:11N 41°18' W 072°54'0 0.0
2014-Apr-18 07:30N 41°18' W 072°54'0 0.0
2014-Apr-18 06:33N 41°18' W 072°54'0 0.0
2014-Apr-18 05:33N 41°18' W 072°54'0 0.0
2014-Apr-18 04:33N 41°18' W 072°54'0 0.0
2014-Apr-18 03:33N 41°18' W 072°54'0 0.0
2014-Apr-18 01:11N 41°18' W 072°54'0 0.7
2014-Apr-18 00:33N 41°17' W 072°55'0 0.1
2014-Apr-17 23:33N 41°17' W 072°54'0 0.0
2014-Apr-17 22:34N 41°17' W 072°54'0 0.0
2014-Apr-17 21:23N 41°17' W 072°54'0 0.1
2014-Apr-17 19:33N 41°18' W 072°54'0 0.2
2014-Apr-17 18:32N 41°18' W 072°54'0 0.0
2014-Apr-17 10:33N 41°17' W 072°55'0 0.1
2014-Apr-17 09:33N 41°17' W 072°54'0 0.0
2014-Apr-17 08:33N 41°17' W 072°54'6 5.3
2014-Apr-17 07:27N 41°12' W 072°52'910.5
2014-Apr-17 06:33N 41°05' W 072°44'6 6.2
2014-Apr-17 05:34N 41°00' W 072°39'0 0.2
2014-Apr-17 04:33N 40°60' W 072°39'0 0.0
2014-Apr-17 03:33N 40°60' W 072°39'0 0.0
2014-Apr-17 02:33N 40°60' W 072°39'0 0.0
2014-Apr-17 01:33N 40°60' W 072°39'0 0.0
2014-Apr-17 00:33N 40°60' W 072°39'0 0.0
2014-Apr-16 23:33N 40°60' W 072°39'0 0.3
2014-Apr-16 22:33N 41°00' W 072°39'1111.0
2014-Apr-16 21:33N 41°08' W 072°49'10 9.8
2014-Apr-16 20:31N 41°18' W 072°54'0 0.0
2014-Apr-16 19:24N 41°18' W 072°54'0 0.0
2014-Apr-16 16:13N 41°18' W 072°54'0 0.0
2014-Apr-16 13:22N 41°18' W 072°54'0 0.2
2014-Apr-16 12:32N 41°18' W 072°54'0 0.1
2014-Apr-16 11:08N 41°18' W 072°55'0 0.3
2014-Apr-16 10:24N 41°18' W 072°54'0 0.0
2014-Apr-16 09:23N 41°18' W 072°54'0 0.0
2014-Apr-16 08:33N 41°18' W 072°54'0 0.0
2014-Apr-16 07:33N 41°18' W 072°54'0 0.0
2014-Apr-16 06:33N 41°18' W 072°54'0 0.0
2014-Apr-16 05:33N 41°18' W 072°54'0 0.0
2014-Apr-16 04:33N 41°18' W 072°54'0 0.0
2014-Apr-16 03:33N 41°18' W 072°54'0 0.0
2014-Apr-16 02:33N 41°18' W 072°54'0 0.0
2014-Apr-16 01:33N 41°18' W 072°54'0 0.0
2014-Apr-16 00:33N 41°18' W 072°54'0 0.0
2014-Apr-15 23:33N 41°18' W 072°54'0 0.0
2014-Apr-15 22:11N 41°18' W 072°54'0 0.0
2014-Apr-15 20:29N 41°18' W 072°54'0 0.1
2014-Apr-15 18:31N 41°18' W 072°55'4 3.7
2014-Apr-15 17:33N 41°14' W 072°55'4 3.6
2014-Apr-15 16:32N 41°18' W 072°54'6 6.5
2014-Apr-15 15:33N 41°12' W 072°52'5 5.1
2014-Apr-15 14:33N 41°16' W 072°55'  

Dump ship's entire track history

sailing weather and tide predictions

C. Angelo — WCZ5866 — position and weather